createdAt,value
2018-10-21T00:01:04.581Z,3.60
2018-10-21T00:03:33.616Z,4.77
2018-10-21T00:06:03.975Z,3.93
2018-10-21T00:08:32.993Z,4.05
2018-10-21T00:11:02.041Z,3.47
2018-10-21T00:13:31.331Z,3.53
2018-10-21T00:16:00.760Z,3.70
2018-10-21T00:18:30.477Z,3.07
2018-10-21T00:20:59.568Z,3.08
2018-10-21T00:23:28.607Z,4.07
2018-10-21T00:25:58.243Z,3.62
2018-10-21T00:28:27.297Z,3.35
2018-10-21T00:30:56.882Z,2.87
2018-10-21T00:33:26.670Z,4.42
2018-10-21T00:35:55.734Z,3.17
2018-10-21T00:38:24.773Z,3.20
2018-10-21T00:40:53.863Z,3.70
2018-10-21T00:43:22.898Z,3.55
2018-10-21T00:45:52.018Z,3.35
2018-10-21T00:48:22.281Z,3.10
2018-10-21T00:50:51.331Z,2.58
2018-10-21T00:53:20.933Z,3.37
2018-10-21T00:55:50.389Z,4.23
2018-10-21T00:58:19.565Z,3.67
2018-10-21T01:00:48.594Z,3.97
2018-10-21T01:03:18.445Z,2.90
2018-10-21T01:05:47.486Z,4.12
2018-10-21T01:08:16.541Z,3.23
2018-10-21T01:10:45.593Z,2.77
2018-10-21T01:13:14.647Z,2.55
2018-10-21T01:15:45.181Z,2.57
2018-10-21T01:18:14.853Z,2.33
2018-10-21T01:20:43.894Z,2.72
2018-10-21T01:23:12.925Z,3.40
2018-10-21T01:25:41.978Z,4.08
2018-10-21T01:28:11.038Z,3.10
2018-10-21T01:30:40.994Z,4.03
2018-10-21T01:33:10.569Z,2.57
2018-10-21T01:35:39.785Z,3.20
2018-10-21T01:38:08.881Z,2.87
2018-10-21T01:40:46.602Z,2.87
2018-10-21T01:43:19.949Z,3.15
2018-10-21T01:45:49.040Z,3.47
2018-10-21T01:48:19.845Z,3.35
2018-10-21T01:50:49.775Z,2.70
2018-10-21T01:53:20.018Z,3.10
2018-10-21T01:55:49.190Z,2.40
2018-10-21T01:58:18.285Z,3.10
2018-10-21T02:00:48.378Z,3.53
2018-10-21T02:03:17.700Z,5.00
2018-10-21T02:05:47.345Z,2.87
2018-10-21T02:08:17.533Z,2.93
2018-10-21T02:10:46.591Z,3.87
2018-10-21T02:13:16.337Z,3.63
2018-10-21T02:15:46.178Z,2.80
2018-10-21T02:18:15.769Z,2.67
2018-10-21T02:20:44.814Z,3.55
2018-10-21T02:23:13.845Z,3.83
2018-10-21T02:25:43.109Z,3.62
2018-10-21T02:28:12.158Z,2.75
2018-10-21T02:30:42.730Z,3.00
2018-10-21T02:33:12.940Z,2.87
2018-10-21T02:35:41.919Z,2.50
2018-10-21T02:38:10.988Z,2.63
2018-10-21T02:41:53.921Z,4.10
2018-10-21T02:44:23.518Z,2.97
2018-10-21T02:46:53.862Z,2.13
2018-10-21T02:49:24.062Z,2.73
2018-10-21T02:51:59.887Z,4.58
2018-10-21T02:54:30.161Z,2.77
2018-10-21T02:56:59.749Z,2.47
2018-10-21T02:59:28.689Z,3.93
2018-10-21T03:01:57.907Z,3.53
2018-10-21T03:04:26.977Z,4.33
2018-10-21T03:06:56.054Z,3.37
2018-10-21T03:09:25.581Z,3.63
2018-10-21T03:11:54.938Z,3.03
2018-10-21T03:14:25.526Z,2.83
2018-10-21T03:16:54.702Z,3.83
2018-10-21T03:19:24.367Z,2.53
2018-10-21T03:21:54.366Z,2.67
2018-10-21T03:24:23.385Z,2.40
2018-10-21T03:26:52.457Z,4.70
2018-10-21T03:29:21.490Z,3.35
2018-10-21T03:31:51.954Z,3.67
2018-10-21T03:34:21.514Z,2.35
2018-10-21T03:36:50.561Z,3.37
2018-10-21T03:39:19.587Z,3.33
2018-10-21T03:41:48.641Z,2.77
2018-10-21T03:44:18.088Z,2.85
2018-10-21T03:46:47.662Z,3.40
2018-10-21T03:49:17.769Z,2.10
2018-10-21T03:51:47.422Z,2.53
2018-10-21T03:54:17.029Z,3.20
2018-10-21T03:56:46.082Z,3.02
2018-10-21T03:59:15.117Z,2.93
2018-10-21T04:01:44.315Z,2.37
2018-10-21T04:04:13.384Z,1.97
2018-10-21T04:06:43.144Z,2.77
2018-10-21T04:09:12.229Z,2.37
2018-10-21T04:11:41.280Z,3.20
2018-10-21T04:14:10.731Z,2.70
2018-10-21T04:16:39.770Z,3.10
2018-10-21T04:19:09.112Z,2.43
2018-10-21T04:21:38.174Z,1.65
2018-10-21T04:24:07.212Z,2.40
2018-10-21T04:26:36.283Z,2.50
2018-10-21T04:29:05.332Z,2.00
2018-10-21T04:31:34.955Z,2.33
2018-10-21T04:34:05.575Z,2.37
2018-10-21T04:36:35.713Z,3.00
2018-10-21T04:39:41.609Z,2.67
2018-10-21T04:42:10.661Z,2.23
2018-10-21T04:44:40.274Z,2.60
2018-10-21T04:47:10.774Z,2.60
2018-10-21T04:49:40.350Z,3.57
2018-10-21T04:52:09.965Z,3.40
2018-10-21T04:54:39.020Z,2.20
2018-10-21T04:57:08.545Z,2.70
2018-10-21T04:59:38.898Z,2.63
2018-10-21T05:02:08.074Z,2.30
2018-10-21T05:04:37.210Z,1.67
2018-10-21T05:07:06.279Z,2.80
2018-10-21T05:09:35.311Z,3.17
2018-10-21T05:12:04.574Z,2.03
2018-10-21T05:14:38.194Z,2.53
2018-10-21T05:17:07.184Z,2.60
2018-10-21T05:19:36.746Z,2.40
2018-10-21T05:22:06.517Z,2.33
2018-10-21T05:24:35.797Z,2.60
2018-10-21T05:27:05.894Z,2.70
2018-10-21T05:29:35.654Z,2.80
2018-10-21T05:32:05.603Z,2.83
2018-10-21T05:34:35.027Z,2.93
2018-10-21T05:37:04.407Z,2.43
2018-10-21T05:39:34.149Z,1.50
2018-10-21T05:42:03.771Z,3.53
2018-10-21T05:44:33.148Z,2.47
2018-10-21T05:47:02.329Z,2.63
2018-10-21T05:49:32.186Z,3.75
2018-10-21T05:52:01.279Z,2.33
2018-10-21T05:54:30.283Z,2.30
2018-10-21T05:56:59.329Z,2.17
2018-10-21T05:59:28.375Z,2.03
2018-10-21T06:01:57.503Z,2.30
2018-10-21T06:04:26.550Z,2.53
2018-10-21T06:06:55.670Z,2.70
2018-10-21T06:09:24.761Z,2.37
2018-10-21T06:11:54.170Z,2.20
2018-10-21T06:14:24.302Z,2.87
2018-10-21T06:17:00.953Z,2.47
2018-10-21T06:19:35.846Z,2.67
2018-10-21T06:22:04.933Z,3.33
2018-10-21T06:24:34.237Z,1.70
2018-10-21T06:27:03.285Z,4.23
2018-10-21T06:29:33.511Z,3.37
2018-10-21T06:32:03.536Z,3.40
2018-10-21T06:34:33.657Z,2.57
2018-10-21T06:37:03.621Z,3.00
2018-10-21T06:39:33.313Z,2.40
2018-10-21T06:42:03.226Z,2.13
2018-10-21T06:44:32.264Z,1.53
2018-10-21T06:47:01.652Z,1.95
2018-10-21T06:49:31.032Z,2.43
2018-10-21T06:52:00.090Z,2.20
2018-10-21T06:54:29.137Z,2.40
2018-10-21T06:56:58.252Z,2.43
2018-10-21T06:59:27.238Z,4.80
2018-10-21T07:01:56.631Z,13.47
2018-10-21T07:04:25.751Z,12.40
2018-10-21T07:06:54.749Z,17.53
2018-10-21T07:09:23.807Z,18.97
2018-10-21T07:11:53.056Z,15.40
2018-10-21T07:14:22.575Z,21.37
2018-10-21T07:16:51.691Z,13.85
2018-10-21T07:19:21.008Z,13.50
2018-10-21T07:21:50.481Z,18.57
2018-10-21T07:24:19.510Z,17.27
2018-10-21T07:26:48.565Z,20.73
2018-10-21T07:29:17.774Z,26.07
2018-10-21T07:31:47.527Z,18.87
2018-10-21T07:34:17.169Z,18.00
2018-10-21T07:36:46.957Z,16.45
2018-10-21T07:39:17.465Z,18.98
2018-10-21T07:41:46.604Z,15.38
2018-10-21T07:44:16.065Z,15.38
2018-10-21T07:46:45.173Z,11.63
2018-10-21T07:49:15.090Z,13.78
2018-10-21T07:51:44.118Z,19.40
2018-10-21T07:54:13.179Z,12.63
2018-10-21T07:56:42.537Z,18.05
2018-10-21T07:59:11.613Z,13.60
2018-10-21T08:01:40.733Z,14.23
2018-10-21T08:04:09.906Z,11.68
2018-10-21T08:06:51.766Z,15.60
2018-10-21T08:09:20.874Z,12.78
2018-10-21T08:11:49.945Z,10.60
2018-10-21T08:14:19.465Z,13.28
2018-10-21T08:16:48.518Z,17.75
2018-10-21T08:19:17.562Z,12.20
2018-10-21T08:21:46.678Z,12.28
2018-10-21T08:24:16.409Z,10.28
2018-10-21T08:26:46.199Z,10.70
2018-10-21T08:29:15.273Z,14.28
2018-10-21T08:31:45.251Z,10.82
2018-10-21T08:34:15.044Z,9.53
2018-10-21T08:36:48.467Z,10.95
2018-10-21T08:39:17.709Z,10.00
2018-10-21T08:41:47.794Z,15.72
2018-10-21T08:44:16.855Z,17.62
2018-10-21T08:46:46.724Z,8.80
2018-10-21T08:49:16.619Z,8.95
2018-10-21T08:51:46.321Z,10.58
2018-10-21T08:54:15.430Z,14.58
2018-10-21T08:56:44.594Z,10.25
2018-10-21T08:59:14.175Z,20.70
2018-10-21T09:01:44.620Z,23.22
2018-10-21T09:04:13.773Z,15.88
2018-10-21T09:06:43.208Z,16.67
2018-10-21T09:09:12.637Z,10.80
2018-10-21T09:11:41.960Z,17.50
2018-10-21T09:14:12.443Z,10.23
2018-10-21T09:16:41.602Z,17.82
2018-10-21T09:19:12.828Z,20.23
2018-10-21T09:21:44.228Z,21.05
2018-10-21T09:24:15.140Z,13.20
2018-10-21T09:26:44.558Z,20.85
2018-10-21T09:29:13.780Z,21.73
2018-10-21T09:31:43.815Z,13.55
2018-10-21T09:34:13.671Z,20.30
2018-10-21T09:36:43.474Z,14.63
2018-10-21T09:39:14.246Z,19.42
2018-10-21T09:41:44.084Z,14.80
2018-10-21T09:44:13.138Z,22.85
2018-10-21T09:46:43.237Z,18.40
2018-10-21T09:49:13.761Z,20.10
2018-10-21T09:51:42.834Z,20.65
2018-10-21T09:54:11.913Z,17.37
2018-10-21T09:56:40.988Z,16.15
2018-10-21T09:59:10.053Z,17.73
2018-10-21T10:01:45.512Z,10.63
2018-10-21T10:04:14.653Z,14.70
2018-10-21T10:06:44.329Z,16.10
2018-10-21T10:09:13.910Z,16.10
2018-10-21T10:11:43.665Z,14.25
2018-10-21T10:14:13.107Z,18.12
2018-10-21T10:16:42.194Z,13.62
2018-10-21T10:19:11.316Z,15.58
2018-10-21T10:21:40.559Z,20.37
2018-10-21T10:24:10.221Z,13.35
2018-10-21T10:26:39.361Z,22.05
2018-10-21T10:29:08.464Z,17.23
2018-10-21T10:31:38.073Z,15.32
2018-10-21T10:34:07.846Z,19.00
2018-10-21T10:36:37.435Z,18.85
2018-10-21T10:39:09.844Z,17.15
2018-10-21T10:41:39.238Z,18.35
2018-10-21T10:44:08.545Z,25.40
2018-10-21T10:46:37.624Z,22.48
2018-10-21T10:49:07.717Z,21.25
2018-10-21T10:51:36.757Z,17.35
2018-10-21T10:54:06.113Z,15.03
2018-10-21T10:56:35.129Z,20.37
2018-10-21T10:59:04.251Z,19.52
2018-10-21T11:01:36.373Z,16.65
2018-10-21T11:04:05.843Z,13.95
2018-10-21T11:06:34.846Z,18.77
2018-10-21T11:09:06.040Z,18.75
2018-10-21T11:11:35.173Z,22.15
2018-10-21T11:14:05.453Z,16.65
2018-10-21T11:16:35.447Z,16.17
2018-10-21T11:19:04.527Z,20.35
2018-10-21T11:21:33.807Z,26.50
2018-10-21T11:24:02.895Z,15.85
2018-10-21T11:26:32.238Z,21.65
2018-10-21T11:29:01.334Z,15.10
2018-10-21T11:31:30.954Z,23.98
2018-10-21T11:34:00.752Z,16.67
2018-10-21T11:36:30.697Z,22.05
2018-10-21T11:38:59.743Z,15.35
2018-10-21T11:41:28.804Z,15.08
2018-10-21T11:43:58.841Z,17.50
2018-10-21T11:46:27.945Z,18.17
2018-10-21T11:49:01.654Z,28.95
2018-10-21T11:51:30.722Z,15.10
2018-10-21T11:53:59.812Z,14.40
2018-10-21T11:56:28.890Z,17.95
2018-10-21T11:58:57.994Z,19.48
2018-10-21T12:01:27.109Z,15.45
2018-10-21T12:03:56.216Z,16.10
2018-10-21T12:06:26.015Z,9.05
2018-10-21T12:08:59.884Z,14.85
2018-10-21T12:11:28.932Z,10.58
2018-10-21T12:13:57.985Z,12.68
2018-10-21T12:16:28.194Z,10.38
2018-10-21T12:18:58.104Z,10.35
2018-10-21T12:21:27.233Z,6.42
2018-10-21T12:23:56.286Z,11.40
2018-10-21T12:26:25.327Z,7.08
2018-10-21T12:28:54.428Z,8.93
2018-10-21T12:31:24.183Z,8.53
2018-10-21T12:33:53.851Z,9.93
2018-10-21T12:36:23.090Z,11.48
2018-10-21T12:38:52.095Z,7.10
2018-10-21T12:41:21.243Z,13.40
2018-10-21T12:43:50.342Z,7.75
2018-10-21T12:46:19.642Z,10.48
2018-10-21T12:48:49.036Z,8.50
2018-10-21T12:51:18.083Z,10.43
2018-10-21T12:53:47.348Z,9.35
2018-10-21T12:56:16.420Z,4.40
2018-10-21T12:58:45.482Z,8.13
2018-10-21T13:01:15.490Z,7.78
2018-10-21T13:03:44.481Z,6.45
2018-10-21T13:06:13.601Z,8.08
2018-10-21T13:08:42.693Z,8.30
2018-10-21T13:11:11.861Z,6.80
2018-10-21T13:13:41.916Z,6.47
2018-10-21T13:16:11.843Z,7.47
2018-10-21T13:18:40.858Z,8.70
2018-10-21T13:21:11.482Z,6.62
2018-10-21T13:23:40.569Z,6.30
2018-10-21T13:26:09.629Z,5.62
2018-10-21T13:28:39.547Z,5.53
2018-10-21T13:31:09.306Z,4.78
2018-10-21T13:33:38.728Z,7.67
2018-10-21T13:36:07.822Z,5.12
2018-10-21T13:38:37.262Z,4.87
2018-10-21T13:41:08.622Z,9.33
2018-10-21T13:43:37.674Z,10.72
2018-10-21T13:46:06.844Z,10.00
2018-10-21T13:48:36.845Z,6.62
2018-10-21T13:51:06.243Z,8.53
2018-10-21T13:53:35.341Z,7.37
2018-10-21T13:56:04.489Z,8.50
2018-10-21T13:58:33.897Z,9.98
2018-10-21T14:01:04.490Z,8.33
2018-10-21T14:03:34.149Z,7.03
2018-10-21T14:06:03.403Z,8.13
2018-10-21T14:08:33.109Z,6.50
2018-10-21T14:11:02.169Z,6.15
2018-10-21T14:13:31.758Z,8.93
2018-10-21T14:16:00.812Z,10.18
2018-10-21T14:18:29.875Z,5.95
2018-10-21T14:20:58.976Z,8.90
2018-10-21T14:23:28.017Z,8.73
2018-10-21T14:25:57.729Z,8.45
2018-10-21T14:28:26.795Z,5.87
2018-10-21T14:30:56.452Z,5.55
2018-10-21T14:33:25.797Z,8.35
2018-10-21T14:35:54.883Z,11.60
2018-10-21T14:38:24.513Z,18.05
2018-10-21T14:40:53.456Z,20.77
2018-10-21T14:43:22.526Z,28.35
2018-10-21T14:45:51.702Z,32.45
2018-10-21T14:48:21.658Z,40.10
2018-10-21T14:50:50.739Z,50.25
2018-10-21T14:53:20.436Z,53.35
2018-10-21T14:55:49.485Z,59.65
2018-10-21T14:58:18.529Z,68.22
2018-10-21T15:00:47.628Z,74.00
2018-10-21T15:03:16.738Z,79.82
2018-10-21T15:05:45.856Z,94.00
2018-10-21T15:08:15.020Z,88.25
2018-10-21T15:10:44.811Z,100.40
2018-10-21T15:13:14.770Z,99.97
2018-10-21T15:15:43.925Z,118.72
2018-10-21T15:18:13.009Z,108.87
2018-10-21T15:20:42.045Z,110.85
2018-10-21T15:23:11.781Z,123.22
2018-10-21T15:25:41.555Z,130.47
2018-10-21T15:28:10.775Z,141.37
2018-10-21T15:30:40.362Z,133.80
2018-10-21T15:33:10.496Z,150.07
2018-10-21T15:35:39.640Z,158.90
2018-10-21T15:38:08.984Z,156.70
2018-10-21T15:40:38.299Z,151.72
2018-10-21T15:43:07.882Z,152.93
2018-10-21T15:45:38.017Z,154.12
2018-10-21T15:48:08.337Z,145.85
2018-10-21T15:50:37.943Z,145.75
2018-10-21T15:53:07.002Z,138.18
2018-10-21T15:55:36.057Z,134.15
2018-10-21T15:58:05.673Z,135.03
2018-10-21T16:00:34.720Z,131.52
2018-10-21T16:03:03.897Z,127.80
2018-10-21T16:05:33.011Z,122.87
2018-10-21T16:08:02.130Z,126.97
2018-10-21T16:10:32.798Z,114.75
2018-10-21T16:13:02.695Z,125.12
2018-10-21T16:15:31.829Z,121.05
2018-10-21T16:18:00.853Z,124.55
2018-10-21T16:20:31.154Z,112.62
2018-10-21T16:23:00.223Z,114.35
2018-10-21T16:25:30.318Z,108.07
2018-10-21T16:27:59.700Z,111.05
2018-10-21T16:30:29.278Z,99.77
2018-10-21T16:32:59.349Z,101.15
2018-10-21T16:35:28.282Z,97.30
2018-10-21T16:37:57.354Z,103.90
2018-10-21T16:40:26.527Z,92.95
2018-10-21T16:42:55.746Z,87.85
2018-10-21T16:45:26.135Z,82.65
2018-10-21T16:47:55.849Z,84.45
2018-10-21T16:50:25.390Z,80.30
2018-10-21T16:52:55.088Z,82.65
2018-10-21T16:55:24.209Z,76.57
2018-10-21T16:57:53.517Z,81.72
2018-10-21T17:00:22.681Z,75.00
2018-10-21T17:02:52.347Z,74.42
2018-10-21T17:05:22.164Z,75.22
2018-10-21T17:07:51.450Z,64.82
2018-10-21T17:10:20.946Z,62.50
2018-10-21T17:12:49.748Z,63.00
2018-10-21T17:15:18.991Z,58.90
2018-10-21T17:17:48.422Z,72.90
2018-10-21T17:20:17.552Z,77.82
2018-10-21T17:22:46.617Z,71.77
2018-10-21T17:25:16.625Z,86.02
2018-10-21T17:27:45.717Z,79.07
2018-10-21T17:30:17.175Z,107.25
2018-10-21T17:32:46.950Z,99.10
2018-10-21T17:35:16.922Z,103.45
2018-10-21T17:37:46.661Z,77.45
2018-10-21T17:40:15.834Z,78.28
2018-10-21T17:42:44.880Z,75.10
2018-10-21T17:45:14.938Z,72.03
2018-10-21T17:47:45.142Z,77.72
2018-10-21T17:50:15.522Z,92.57
2018-10-21T17:52:45.091Z,74.58
2018-10-21T17:55:14.630Z,71.90
2018-10-21T17:57:43.480Z,70.22
2018-10-21T18:00:13.364Z,61.42
2018-10-21T18:02:42.516Z,64.42
2018-10-21T18:05:13.476Z,64.07
2018-10-21T18:07:43.057Z,64.00
2018-10-21T18:10:12.891Z,78.80
2018-10-21T18:12:41.926Z,54.20
2018-10-21T18:15:12.136Z,60.73
2018-10-21T18:17:41.774Z,63.85
2018-10-21T18:20:11.894Z,53.48
2018-10-21T18:22:41.546Z,53.42
2018-10-21T18:25:11.655Z,59.23
2018-10-21T18:27:41.125Z,50.12
2018-10-21T18:30:12.321Z,62.58
2018-10-21T18:32:42.222Z,47.05
2018-10-21T18:35:13.541Z,49.42
2018-10-21T18:37:43.116Z,50.20
2018-10-21T18:40:12.746Z,53.60
2018-10-21T18:42:42.071Z,46.25
2018-10-21T18:45:13.128Z,38.40
2018-10-21T18:47:43.742Z,36.50
2018-10-21T18:50:14.775Z,44.70
2018-10-21T18:52:43.869Z,42.17
2018-10-21T18:55:13.621Z,39.83
2018-10-21T18:57:43.122Z,37.63
2018-10-21T19:00:14.731Z,39.73
2018-10-21T19:02:43.824Z,37.58
2018-10-21T19:05:13.763Z,33.08
2018-10-21T19:07:42.993Z,32.90
2018-10-21T19:10:13.634Z,34.63
2018-10-21T19:12:43.486Z,35.50
2018-10-21T19:15:13.559Z,35.90
2018-10-21T19:17:42.899Z,34.18
2018-10-21T19:20:13.790Z,30.68
2018-10-21T19:22:43.367Z,31.77
2018-10-21T19:25:14.447Z,37.13
2018-10-21T19:27:44.428Z,32.42
2018-10-21T19:30:15.545Z,32.45
2018-10-21T19:32:45.195Z,34.00
2018-10-21T19:35:16.020Z,28.62
2018-10-21T19:37:45.647Z,30.23
2018-10-21T19:40:15.673Z,27.17
2018-10-21T19:42:45.142Z,29.98
2018-10-21T19:45:15.345Z,27.60
2018-10-21T19:47:45.474Z,28.80
2018-10-21T19:50:16.334Z,30.52
2018-10-21T19:52:45.605Z,28.47
2018-10-21T19:55:14.840Z,26.85
2018-10-21T19:57:44.024Z,27.80
2018-10-21T20:00:16.161Z,26.90
2018-10-21T20:02:45.680Z,26.93
2018-10-21T20:05:15.038Z,26.07
2018-10-21T20:07:44.503Z,28.35
2018-10-21T20:10:14.596Z,28.27
2018-10-21T20:12:43.582Z,22.13
2018-10-21T20:15:13.211Z,23.42
2018-10-21T20:17:42.267Z,24.82
2018-10-21T20:20:12.538Z,21.13
2018-10-21T20:22:43.079Z,21.63
2018-10-21T20:25:12.798Z,19.00
2018-10-21T20:27:41.803Z,20.40
2018-10-21T20:30:12.547Z,22.60
2018-10-21T20:32:42.453Z,23.50
2018-10-21T20:35:12.475Z,18.80
2018-10-21T20:37:42.259Z,20.92
2018-10-21T20:40:11.733Z,23.60
2018-10-21T20:42:40.687Z,18.92
2018-10-21T20:45:12.577Z,17.45
2018-10-21T20:47:42.523Z,19.60
2018-10-21T20:50:11.594Z,17.77
2018-10-21T20:52:40.654Z,19.17
2018-10-21T20:55:11.352Z,18.15
2018-10-21T20:57:40.489Z,20.70
2018-10-21T21:00:09.628Z,15.55
2018-10-21T21:02:39.534Z,19.27
2018-10-21T21:05:10.399Z,19.00
2018-10-21T21:07:40.164Z,16.32
2018-10-21T21:10:09.709Z,17.95
2018-10-21T21:12:38.863Z,17.12
2018-10-21T21:15:08.404Z,17.62
2018-10-21T21:17:37.534Z,17.67
2018-10-21T21:20:07.726Z,15.43
2018-10-21T21:22:36.994Z,17.27
2018-10-21T21:25:06.838Z,16.10
2018-10-21T21:27:35.891Z,17.50
2018-10-21T21:30:06.759Z,17.37
2018-10-21T21:32:36.378Z,16.30
2018-10-21T21:35:07.154Z,15.33
2018-10-21T21:37:36.840Z,13.22
2018-10-21T21:40:07.345Z,16.60
2018-10-21T21:42:37.164Z,15.13
2018-10-21T21:45:06.619Z,13.73
2018-10-21T21:47:36.571Z,14.43
2018-10-21T21:50:06.734Z,15.17
2018-10-21T21:52:35.821Z,13.77
2018-10-21T21:55:05.775Z,13.93
2018-10-21T21:57:34.868Z,15.25
2018-10-21T22:00:05.657Z,13.65
2018-10-21T22:02:35.030Z,14.43
2018-10-21T22:05:04.693Z,12.97
2018-10-21T22:07:33.790Z,13.15
2018-10-21T22:10:02.942Z,13.83
2018-10-21T22:12:31.905Z,16.70
2018-10-21T22:15:01.124Z,14.30
2018-10-21T22:17:30.195Z,13.40
2018-10-21T22:19:59.246Z,12.93
2018-10-21T22:22:28.295Z,14.13
2018-10-21T22:24:58.056Z,11.80
2018-10-21T22:27:27.113Z,13.85
2018-10-21T22:29:57.083Z,13.60
2018-10-21T22:32:26.814Z,11.70
2018-10-21T22:34:56.242Z,12.57
2018-10-21T22:37:25.779Z,11.53
2018-10-21T22:39:56.412Z,10.83
2018-10-21T22:42:25.482Z,11.40
2018-10-21T22:44:54.641Z,10.98
2018-10-21T22:47:24.497Z,15.53
2018-10-21T22:49:54.156Z,10.93
2018-10-21T22:52:23.193Z,12.28
2018-10-21T22:54:52.869Z,12.63
2018-10-21T22:57:21.927Z,11.00
2018-10-21T22:59:51.648Z,12.77
2018-10-21T23:02:20.688Z,11.13
2018-10-21T23:04:49.812Z,10.25
2018-10-21T23:07:18.869Z,9.60
2018-10-21T23:09:47.897Z,10.25
2018-10-21T23:12:17.124Z,10.07
2018-10-21T23:14:46.110Z,11.75
2018-10-21T23:17:15.154Z,9.50
2018-10-21T23:19:47.543Z,9.13
2018-10-21T23:22:16.671Z,9.23
2018-10-21T23:24:47.106Z,9.33
2018-10-21T23:27:16.164Z,9.13
2018-10-21T23:29:45.886Z,13.45
2018-10-21T23:32:15.471Z,9.93
2018-10-21T23:34:44.950Z,8.90
2018-10-21T23:37:14.569Z,10.43
2018-10-21T23:39:43.897Z,11.37
2018-10-21T23:42:13.770Z,11.80
2018-10-21T23:44:43.080Z,9.03
2018-10-21T23:47:12.153Z,9.38
2018-10-21T23:49:41.590Z,9.53
2018-10-21T23:52:10.976Z,9.73
2018-10-21T23:54:39.954Z,10.13
2018-10-21T23:57:09.390Z,9.47
2018-10-21T23:59:38.495Z,12.57
